Main page
METAR-TAF:

METAR-TAF

Airports :

Shiraz International Airport

Shiraz, Iran

latitude: 29-32N, longitude: 052-35E, elevation: 1486 m

Current weather observation

The report was made 36 minutes ago, at 11:00 UTC
Wind 6 kt from the East
Temperature 42°C
Humidity 5%
Pressure 1006 hPa
Visibility 10 km or more
no clouds below 1500 m and no cumulonimbus

METAR: OISS 011100Z 08006KT CAVOK 42/M05 Q1006 A2971

Time: 16:06 (11:36 UTC)

Forecast

The report was made 6 hours and 6 minutes ago, at 05:30 UTC
Forecast valid from 01 at 06 UTC to 02 at 12 UTC
Wind 8 kt from the West
Visibility: 7000 m

TAF: OISS 010530Z 0106/0212 27008KT 7000 NSC

Weather observations and forecasts of more than 4000 airports (METAR and TAF reports).

The available stations are represented by yellow and red dots on the map.

Hover mouse over dot to see the name of the station.

Then click to see weather observations and forecasts.

To change the map : click on the green buttons with a black cross to zoom in, on the green button with a dash to zoom out, or on the green arrows for adjacent maps.


METAR-TAF: